Time;durP1;ratioP1;P1;durP2;ratioP2;P2;SDS_P1;SDS_P2;PMS_P1;PMS_P2;Temp;Humidity;BMP_temperature;BMP_pressure;BME280_temperature;BME280_humidity;BME280_pressure;Samples;Min_cycle;Max_cycle;Signal;HPM_P1;HPM_P2
2021/03/15 00:00:01;;;;;;;4.17;2.57;;;8.00;91.90;;;;;;5093700;28;20745;-51
2021/03/15 00:02:28;;;;;;;5.00;3.10;;;8.10;91.90;;;;;;5094607;28;20686;-52
2021/03/15 00:04:55;;;;;;;4.60;2.63;;;8.00;92.00;;;;;;5094188;28;20723;-53
2021/03/15 00:07:21;;;;;;;3.90;3.10;;;8.00;91.80;;;;;;5093164;28;20655;-53
2021/03/15 00:09:48;;;;;;;3.43;3.13;;;8.00;91.80;;;;;;5093599;28;20689;-52
2021/03/15 00:12:15;;;;;;;3.67;3.27;;;8.00;91.90;;;;;;5092586;28;20673;-53
2021/03/15 00:14:42;;;;;;;4.97;3.30;;;8.00;91.70;;;;;;5093074;28;20665;-53
2021/03/15 00:17:09;;;;;;;5.37;2.93;;;8.00;91.60;;;;;;5093308;28;20695;-52
2021/03/15 00:19:36;;;;;;;2.87;2.30;;;8.00;91.70;;;;;;5092582;28;20713;-53
2021/03/15 00:22:03;;;;;;;4.77;3.40;;;8.00;91.70;;;;;;5092841;28;21187;-52
2021/03/15 00:24:30;;;;;;;4.20;2.93;;;8.10;92.20;;;;;;5092949;28;20677;-52
2021/03/15 00:26:56;;;;;;;4.20;2.87;;;8.00;91.90;;;;;;5092268;28;20627;-52
2021/03/15 00:29:23;;;;;;;6.23;3.47;;;7.90;92.10;;;;;;5090731;28;20701;-52
2021/03/15 00:31:51;;;;;;;4.10;2.93;;;7.90;92.30;;;;;;5092775;28;20623;-51
2021/03/15 00:34:17;;;;;;;3.93;3.50;;;7.90;92.40;;;;;;5092827;28;20661;-52
2021/03/15 00:36:44;;;;;;;5.57;3.70;;;7.90;92.50;;;;;;5092957;28;20615;-51
2021/03/15 00:39:11;;;;;;;3.53;3.23;;;7.90;92.40;;;;;;5092923;28;20661;-51
2021/03/15 00:41:38;;;;;;;4.50;3.50;;;7.80;92.60;;;;;;5091313;28;20740;-53
2021/03/15 00:44:05;;;;;;;3.73;3.43;;;7.80;92.80;;;;;;5091077;28;20635;-52
2021/03/15 00:46:32;;;;;;;3.10;2.90;;;7.80;92.70;;;;;;5092312;28;20636;-53
2021/03/15 00:49:00;;;;;;;6.20;3.33;;;7.80;92.90;;;;;;5092024;28;21183;-52
2021/03/15 00:51:27;;;;;;;4.73;4.33;;;7.90;93.00;;;;;;5092317;28;20997;-52
2021/03/15 00:53:53;;;;;;;13.33;5.23;;;7.80;93.20;;;;;;5092523;28;20697;-52
2021/03/15 00:56:20;;;;;;;3.63;3.30;;;7.80;93.10;;;;;;5092632;28;20685;-51
2021/03/15 00:58:47;;;;;;;3.07;2.77;;;7.80;93.10;;;;;;5092176;28;20703;-50
2021/03/15 01:01:14;;;;;;;5.43;4.43;;;7.80;93.20;;;;;;5092048;28;21030;-51
2021/03/15 01:03:41;;;;;;;7.40;3.60;;;7.80;93.50;;;;;;5092093;28;21065;-51
2021/03/15 01:06:11;;;;;;;4.53;3.80;;;7.70;93.60;;;;;;5092119;28;21035;-51
2021/03/15 01:08:37;;;;;;;4.60;4.07;;;7.60;94.00;;;;;;5087458;28;21276;-51
2021/03/15 01:11:04;;;;;;;5.23;4.17;;;7.60;93.90;;;;;;5089231;28;20693;-50
2021/03/15 01:13:31;;;;;;;5.53;4.93;;;7.60;93.90;;;;;;5091623;28;20622;-50
2021/03/15 01:15:58;;;;;;;6.33;5.20;;;7.60;93.80;;;;;;5091593;28;20635;-51
2021/03/15 01:18:24;;;;;;;7.90;4.33;;;7.70;93.80;;;;;;5091573;28;20663;-52
2021/03/15 01:20:51;;;;;;;7.57;5.50;;;7.70;93.70;;;;;;5091575;28;21081;-50
2021/03/15 01:23:19;;;;;;;4.90;4.50;;;7.80;93.70;;;;;;5092270;28;20630;-51
2021/03/15 01:25:46;;;;;;;7.77;4.27;;;7.70;93.50;;;;;;5091848;28;20661;-50
2021/03/15 01:28:13;;;;;;;7.07;5.40;;;7.70;93.50;;;;;;5091617;28;20655;-51
2021/03/15 01:30:41;;;;;;;5.73;5.33;;;7.70;93.60;;;;;;5091419;28;20675;-49
2021/03/15 01:33:07;;;;;;;9.10;4.70;;;7.70;93.60;;;;;;5091650;28;21032;-50
2021/03/15 01:35:35;;;;;;;5.80;4.87;;;7.70;93.60;;;;;;5091019;28;21229;-51
2021/03/15 01:38:02;;;;;;;6.10;5.60;;;7.70;93.60;;;;;;5091451;28;20657;-51
2021/03/15 01:40:30;;;;;;;5.60;4.90;;;7.70;93.50;;;;;;5091494;28;20661;-51
2021/03/15 01:42:56;;;;;;;5.73;5.10;;;7.70;93.40;;;;;;5091728;28;20615;-50
2021/03/15 01:45:23;;;;;;;5.80;5.10;;;7.70;93.50;;;;;;5091533;28;20663;-50
2021/03/15 01:47:50;;;;;;;5.50;5.00;;;7.70;93.50;;;;;;5091035;28;20641;-50
2021/03/15 01:50:17;;;;;;;7.43;4.90;;;7.70;93.50;;;;;;5091721;28;20655;-50
2021/03/15 01:52:44;;;;;;;5.73;4.83;;;7.60;93.50;;;;;;5091651;28;20738;-50
2021/03/15 01:55:12;;;;;;;4.27;3.57;;;7.50;93.70;;;;;;5091662;28;20679;-51
2021/03/15 01:57:39;;;;;;;6.73;5.07;;;7.50;93.70;;;;;;5091056;28;20650;-51
2021/03/15 02:00:08;;;;;;;5.93;5.37;;;7.50;93.80;;;;;;5091605;28;20649;-51
2021/03/15 02:02:35;;;;;;;5.77;5.27;;;7.50;93.80;;;;;;5090936;28;20664;-52
2021/03/15 02:05:02;;;;;;;5.90;5.00;;;7.40;93.80;;;;;;5091593;28;20620;-51
2021/03/15 02:07:29;;;;;;;7.83;5.03;;;7.40;93.90;;;;;;5090841;28;20687;-52
2021/03/15 02:09:55;;;;;;;9.50;5.80;;;7.40;93.90;;;;;;5090746;28;21220;-51
2021/03/15 02:12:28;;;;;;;8.00;5.40;;;7.40;94.10;;;;;;5091261;28;20649;-51
2021/03/15 02:15:03;;;;;;;5.33;4.83;;;7.40;94.00;;;;;;5090991;28;20649;-51
2021/03/15 02:17:33;;;;;;;7.17;6.27;;;7.40;93.70;;;;;;5091098;28;20638;-51
2021/03/15 02:20:28;;;;;;;6.07;5.57;;;7.40;93.70;;;;;;5090850;28;20711;-49
2021/03/15 02:22:59;;;;;;;7.07;4.67;;;7.40;93.80;;;;;;5091387;28;20628;-52
2021/03/15 02:26:17;;;;;;;5.00;4.30;;;7.40;93.80;;;;;;5087022;28;20655;-52
2021/03/15 02:29:14;;;;;;;7.07;5.40;;;7.50;93.60;;;;;;5074517;28;20630;-50
2021/03/15 02:32:13;;;;;;;8.77;6.10;;;7.50;93.60;;;;;;5090603;28;20669;-52
2021/03/15 02:34:55;;;;;;;7.27;5.57;;;7.50;93.50;;;;;;5084088;28;20686;-52
2021/03/15 02:37:23;;;;;;;6.50;5.80;;;7.50;93.40;;;;;;5078841;28;21111;-51
2021/03/15 02:39:51;;;;;;;6.93;4.40;;;7.50;93.30;;;;;;5090704;28;20709;-50
2021/03/15 02:42:18;;;;;;;7.53;5.53;;;7.50;93.30;;;;;;5090595;28;20620;-51
2021/03/15 02:44:46;;;;;;;6.57;5.70;;;7.60;93.30;;;;;;5091387;28;20633;-52
2021/03/15 02:47:14;;;;;;;7.70;4.93;;;7.50;93.10;;;;;;5090864;28;20627;-52
2021/03/15 02:49:41;;;;;;;5.47;4.90;;;7.50;93.10;;;;;;5094426;28;20653;-51
2021/03/15 02:52:09;;;;;;;7.33;5.00;;;7.50;93.00;;;;;;5094659;28;20634;-51
2021/03/15 02:54:36;;;;;;;8.40;5.43;;;7.60;93.00;;;;;;5094742;28;20622;-52
2021/03/15 02:57:04;;;;;;;5.50;4.50;;;7.60;92.80;;;;;;5094520;28;20635;-52
2021/03/15 02:59:30;;;;;;;5.60;4.60;;;7.60;92.80;;;;;;5094533;28;21292;-51
2021/03/15 03:01:57;;;;;;;13.30;6.10;;;7.50;92.90;;;;;;5094765;28;20622;-51
2021/03/15 03:04:24;;;;;;;9.37;6.00;;;7.50;92.90;;;;;;5094365;28;20655;-51
2021/03/15 03:06:51;;;;;;;12.77;5.60;;;7.50;93.10;;;;;;5094245;28;20642;-51
2021/03/15 03:09:18;;;;;;;8.10;4.63;;;7.50;93.20;;;;;;5093767;28;20697;-51
2021/03/15 03:11:45;;;;;;;7.17;6.47;;;7.50;93.30;;;;;;5081698;28;20656;-51
2021/03/15 03:14:12;;;;;;;7.70;5.40;;;7.50;93.30;;;;;;5074445;28;20632;-50
2021/03/15 03:16:40;;;;;;;7.00;5.97;;;7.60;93.30;;;;;;5075637;28;20974;-51
2021/03/15 03:19:08;;;;;;;6.93;5.33;;;7.60;93.40;;;;;;5075243;28;20701;-52
2021/03/15 03:21:35;;;;;;;7.93;5.17;;;7.60;93.30;;;;;;5074269;28;21001;-52
2021/03/15 03:24:02;;;;;;;6.13;5.60;;;7.60;93.30;;;;;;5074368;28;20651;-52
2021/03/15 03:26:30;;;;;;;7.17;6.27;;;7.60;93.50;;;;;;5090715;28;20662;-52
2021/03/15 03:28:58;;;;;;;5.93;4.97;;;7.50;94.20;;;;;;5093302;28;21088;-52
2021/03/15 03:31:26;;;;;;;11.37;6.30;;;7.50;94.60;;;;;;5093492;28;21216;-51
2021/03/15 03:33:52;;;;;;;9.60;6.27;;;7.40;95.00;;;;;;5093879;28;20699;-51
2021/03/15 03:36:19;;;;;;;11.27;6.60;;;7.30;95.30;;;;;;5093481;28;20670;-52
2021/03/15 03:38:46;;;;;;;11.03;7.07;;;7.30;95.70;;;;;;5093289;28;20683;-51
2021/03/15 03:41:13;;;;;;;9.93;7.50;;;7.20;95.90;;;;;;5093374;28;20689;-51
2021/03/15 03:43:40;;;;;;;9.30;6.70;;;7.10;95.90;;;;;;5093529;28;20658;-51
2021/03/15 03:46:07;;;;;;;9.00;8.07;;;7.10;96.10;;;;;;5093593;28;20985;-51
2021/03/15 03:48:34;;;;;;;8.57;7.30;;;7.00;96.20;;;;;;5093468;28;20654;-51
2021/03/15 03:51:01;;;;;;;12.30;6.50;;;7.00;96.30;;;;;;5093706;28;20994;-51
2021/03/15 03:53:30;;;;;;;7.80;6.97;;;7.10;96.30;;;;;;5093381;28;21039;-51
2021/03/15 03:55:58;;;;;;;10.83;9.33;;;7.20;96.20;;;;;;5093392;28;21166;-52
2021/03/15 03:58:25;;;;;;;10.73;8.13;;;7.10;96.00;;;;;;5092568;28;20677;-52
2021/03/15 04:00:53;;;;;;;10.93;8.37;;;7.10;96.10;;;;;;5093293;28;20662;-52
2021/03/15 04:03:20;;;;;;;7.13;6.43;;;7.10;96.30;;;;;;5093216;28;21245;-52
2021/03/15 04:05:49;;;;;;;11.37;7.00;;;7.10;96.20;;;;;;5093362;28;20630;-52
2021/03/15 04:08:20;;;;;;;10.27;6.63;;;7.20;96.20;;;;;;5093096;28;20626;-51
2021/03/15 04:10:48;;;;;;;7.17;6.47;;;7.10;96.20;;;;;;5093066;28;20658;-52
2021/03/15 04:13:18;;;;;;;10.53;8.17;;;7.10;96.50;;;;;;5093174;28;20629;-51
2021/03/15 04:15:45;;;;;;;10.43;7.90;;;7.00;96.80;;;;;;5092486;28;20627;-50
2021/03/15 04:18:13;;;;;;;16.83;6.87;;;7.00;97.00;;;;;;5092919;28;20730;-53
2021/03/15 04:20:42;;;;;;;12.70;6.67;;;7.00;97.00;;;;;;5093270;28;20658;-53
2021/03/15 04:23:11;;;;;;;7.20;5.30;;;7.00;97.20;;;;;;5092759;28;21190;-50
2021/03/15 04:25:39;;;;;;;10.57;7.47;;;6.90;97.20;;;;;;5092775;28;21046;-52
2021/03/15 04:28:07;;;;;;;11.67;6.50;;;6.90;97.40;;;;;;5092853;28;20619;-51
2021/03/15 04:30:34;;;;;;;9.50;6.03;;;6.90;97.50;;;;;;5092333;28;20683;-52
2021/03/15 04:33:01;;;;;;;10.73;7.10;;;6.80;97.50;;;;;;5093091;28;20656;-51
2021/03/15 04:35:30;;;;;;;13.93;8.00;;;6.80;97.80;;;;;;5092515;28;21207;-52
2021/03/15 04:37:57;;;;;;;8.23;5.67;;;6.80;97.90;;;;;;5092324;28;21214;-52
2021/03/15 04:40:24;;;;;;;13.80;7.43;;;6.80;98.00;;;;;;5091960;28;20661;-52
2021/03/15 04:42:51;;;;;;;7.40;5.93;;;6.60;97.80;;;;;;5092592;28;20733;-52
2021/03/15 04:45:18;;;;;;;6.83;4.60;;;6.60;98.10;;;;;;5092370;28;20632;-52
2021/03/15 04:47:45;;;;;;;9.13;7.33;;;6.60;98.30;;;;;;5091548;28;20649;-50
2021/03/15 04:50:12;;;;;;;7.13;5.10;;;6.60;98.40;;;;;;5091943;28;20695;-51
2021/03/15 04:52:42;;;;;;;8.27;6.57;;;6.60;98.40;;;;;;5092099;28;20648;-51
2021/03/15 04:55:09;;;;;;;11.00;7.53;;;6.60;98.40;;;;;;5092418;28;20654;-52
2021/03/15 04:57:36;;;;;;;9.53;7.40;;;6.60;98.40;;;;;;5091915;28;20689;-52
2021/03/15 05:00:04;;;;;;;9.07;7.43;;;6.70;98.60;;;;;;5091519;28;20688;-52
2021/03/15 05:02:31;;;;;;;11.90;7.70;;;6.70;98.60;;;;;;5087969;28;20991;-52
2021/03/15 05:04:58;;;;;;;7.23;4.67;;;6.70;98.60;;;;;;5091607;28;20658;-50
2021/03/15 05:07:24;;;;;;;7.67;4.83;;;6.70;98.50;;;;;;5091600;28;21250;-52
2021/03/15 05:09:52;;;;;;;4.83;3.90;;;6.70;98.50;;;;;;5091258;28;21205;-52
2021/03/15 05:12:19;;;;;;;11.37;7.00;;;6.60;98.30;;;;;;5091886;28;20672;-52
2021/03/15 05:14:45;;;;;;;12.57;6.67;;;6.60;98.40;;;;;;5088458;28;20974;-52
2021/03/15 05:17:12;;;;;;;5.87;4.40;;;6.70;98.60;;;;;;5076277;28;20628;-52
2021/03/15 05:19:39;;;;;;;9.53;7.80;;;6.60;98.40;;;;;;5086979;28;20701;-52
2021/03/15 05:22:07;;;;;;;8.83;5.37;;;6.70;98.50;;;;;;5077232;28;20643;-50
2021/03/15 05:24:34;;;;;;;9.50;5.70;;;6.70;98.50;;;;;;5086937;28;20658;-52
2021/03/15 05:27:01;;;;;;;8.00;5.77;;;6.70;98.40;;;;;;5091515;28;20687;-51
2021/03/15 05:29:28;;;;;;;9.23;6.60;;;6.70;98.50;;;;;;5091120;28;20662;-51
2021/03/15 05:31:55;;;;;;;10.53;4.07;;;6.70;98.50;;;;;;5091389;28;20656;-51
2021/03/15 05:34:21;;;;;;;7.83;5.80;;;6.70;98.50;;;;;;5091138;28;20660;-51
2021/03/15 05:36:48;;;;;;;12.67;5.10;;;6.70;98.60;;;;;;5090329;28;20663;-52
2021/03/15 05:39:15;;;;;;;10.33;6.97;;;6.70;98.60;;;;;;5091070;28;20688;-52
2021/03/15 05:41:49;;;;;;;7.60;6.50;;;6.70;98.60;;;;;;5091198;28;20687;-51
2021/03/15 05:44:29;;;;;;;10.70;5.70;;;6.80;98.70;;;;;;5090984;28;20663;-52
2021/03/15 05:47:10;;;;;;;9.00;6.83;;;6.80;98.60;;;;;;5090775;28;20635;-52
2021/03/15 05:50:15;;;;;;;7.90;5.00;;;6.70;98.70;;;;;;5090804;28;21201;-52
2021/03/15 05:52:54;;;;;;;6.87;5.43;;;6.80;98.80;;;;;;5090892;28;20664;-51
2021/03/15 05:55:32;;;;;;;5.67;5.07;;;6.80;98.90;;;;;;5091684;28;20674;-51
2021/03/15 05:58:23;;;;;;;7.57;5.97;;;6.80;98.90;;;;;;5090944;28;20697;-52
2021/03/15 06:01:02;;;;;;;5.57;5.07;;;6.80;98.90;;;;;;5091183;28;20649;-51
2021/03/15 06:03:45;;;;;;;5.97;4.63;;;6.70;98.90;;;;;;5090776;28;21234;-52
2021/03/15 06:06:16;;;;;;;14.60;6.57;;;6.70;99.00;;;;;;5091215;28;20622;-51
2021/03/15 06:08:45;;;;;;;8.00;7.20;;;6.70;99.10;;;;;;5090387;28;20618;-52
2021/03/15 06:11:12;;;;;;;9.83;7.17;;;6.70;99.20;;;;;;5090460;28;20646;-51
2021/03/15 06:13:39;;;;;;;7.87;6.20;;;6.70;99.50;;;;;;5090836;28;20629;-52
2021/03/15 06:16:08;;;;;;;8.17;7.20;;;6.70;99.50;;;;;;5091108;28;20628;-52
2021/03/15 06:18:35;;;;;;;10.97;5.80;;;6.60;99.30;;;;;;5090446;28;20696;-52
2021/03/15 06:21:02;;;;;;;13.23;6.53;;;6.60;99.80;;;;;;5091125;28;20681;-51
2021/03/15 06:23:30;;;;;;;7.20;5.30;;;6.60;99.60;;;;;;5094827;28;20628;-53
2021/03/15 06:25:57;;;;;;;9.70;6.33;;;6.70;99.70;;;;;;5092950;28;20690;-54
2021/03/15 06:28:24;;;;;;;12.57;7.83;;;6.70;99.50;;;;;;5095458;28;20618;-52
2021/03/15 06:30:51;;;;;;;9.00;7.97;;;6.70;99.70;;;;;;5093031;28;20725;-50
2021/03/15 06:33:19;;;;;;;8.27;6.60;;;6.80;99.50;;;;;;5094489;28;20620;-51
2021/03/15 06:35:47;;;;;;;7.83;7.13;;;6.80;99.50;;;;;;5094549;28;20650;-51
2021/03/15 06:38:15;;;;;;;12.20;7.00;;;6.80;99.30;;;;;;5094564;28;20840;-51
2021/03/15 06:40:43;;;;;;;6.53;5.23;;;6.80;99.10;;;;;;5093944;28;20743;-51
2021/03/15 06:43:12;;;;;;;6.83;5.83;;;6.80;99.00;;;;;;5094760;28;20618;-51
2021/03/15 06:45:39;;;;;;;3.00;2.70;;;6.80;99.00;;;;;;5093856;28;20699;-51
2021/03/15 06:48:06;;;;;;;6.17;5.27;;;6.70;99.00;;;;;;5094230;28;21185;-53
2021/03/15 06:50:34;;;;;;;2.73;2.00;;;6.60;99.10;;;;;;5094241;28;20681;-53
2021/03/15 06:53:01;;;;;;;5.17;3.90;;;6.60;99.20;;;;;;5093927;28;21201;-53
2021/03/15 06:55:32;;;;;;;5.57;3.27;;;6.60;99.10;;;;;;5094185;28;20654;-53
2021/03/15 06:57:59;;;;;;;5.63;3.90;;;6.50;98.80;;;;;;5084271;28;21220;-51
2021/03/15 07:00:27;;;;;;;5.30;4.13;;;6.60;99.10;;;;;;5093396;28;20724;-52
2021/03/15 07:02:57;;;;;;;4.73;3.97;;;6.60;99.10;;;;;;5092374;28;20657;-52
2021/03/15 07:05:24;;;;;;;6.50;3.57;;;6.70;99.20;;;;;;5074115;28;20660;-52
2021/03/15 07:07:53;;;;;;;3.83;3.07;;;6.80;99.00;;;;;;5083746;28;20636;-53
2021/03/15 07:10:21;;;;;;;2.40;2.17;;;6.70;98.60;;;;;;5092418;28;20706;-52
2021/03/15 07:12:48;;;;;;;3.47;3.17;;;6.70;98.40;;;;;;5094196;28;20652;-52
2021/03/15 07:15:15;;;;;;;6.10;2.60;;;6.80;98.50;;;;;;5093206;28;20652;-52
2021/03/15 07:17:42;;;;;;;3.20;2.13;;;6.80;98.40;;;;;;5092136;28;20636;-52
2021/03/15 07:20:10;;;;;;;4.50;2.70;;;6.80;98.30;;;;;;5093629;28;21076;-52
2021/03/15 07:22:41;;;;;;;4.57;3.83;;;6.90;98.40;;;;;;5093180;28;20657;-52
2021/03/15 07:25:11;;;;;;;3.20;2.90;;;7.00;98.50;;;;;;5093419;28;20660;-52
2021/03/15 07:27:38;;;;;;;3.03;2.83;;;7.00;98.30;;;;;;5092872;28;20656;-52
2021/03/15 07:30:31;;;;;;;4.63;3.30;;;7.10;98.20;;;;;;5093242;28;21007;-52
2021/03/15 07:32:59;;;;;;;7.40;3.23;;;7.10;98.30;;;;;;5092464;28;20661;-53
2021/03/15 07:35:26;;;;;;;3.20;2.90;;;7.10;98.20;;;;;;5092760;28;20665;-52
2021/03/15 07:37:53;;;;;;;2.90;2.47;;;7.20;98.10;;;;;;5092795;28;20655;-53
2021/03/15 07:40:38;;;;;;;3.37;3.07;;;7.20;97.90;;;;;;5092697;28;20702;-53
2021/03/15 07:43:05;;;;;;;2.00;1.80;;;7.20;98.00;;;;;;5091263;28;20664;-52
2021/03/15 07:45:34;;;;;;;2.10;1.90;;;7.30;97.80;;;;;;5091549;28;20730;-53
2021/03/15 07:48:14;;;;;;;3.67;2.63;;;7.30;97.60;;;;;;5093054;28;20654;-51
2021/03/15 07:50:43;;;;;;;4.33;2.50;;;7.30;97.60;;;;;;5092940;28;20689;-52
2021/03/15 07:53:09;;;;;;;3.13;2.27;;;7.40;97.70;;;;;;5092702;28;20626;-52
2021/03/15 07:55:38;;;;;;;3.73;2.57;;;7.40;97.60;;;;;;5092716;28;20669;-53
2021/03/15 07:58:34;;;;;;;2.70;2.50;;;7.40;97.60;;;;;;5093064;28;20626;-54
2021/03/15 08:01:02;;;;;;;2.87;2.47;;;7.50;97.80;;;;;;5010285;28;20756;-54
2021/03/15 08:03:29;;;;;;;2.80;2.60;;;7.50;97.40;;;;;;5073696;28;20642;-53
2021/03/15 08:05:56;;;;;;;2.87;2.27;;;7.50;97.40;;;;;;5092595;28;20704;-53
2021/03/15 08:08:23;;;;;;;1.73;1.30;;;7.50;97.20;;;;;;5091870;28;21191;-54
2021/03/15 08:10:51;;;;;;;2.27;2.03;;;7.40;97.30;;;;;;5092516;28;20682;-52
2021/03/15 08:13:19;;;;;;;3.60;1.90;;;7.40;97.50;;;;;;5092608;28;20674;-51
2021/03/15 08:15:47;;;;;;;2.80;2.60;;;7.40;97.70;;;;;;5092254;28;20619;-51
2021/03/15 08:18:17;;;;;;;2.33;2.13;;;7.40;97.60;;;;;;5092384;28;21257;-51
2021/03/15 08:20:45;;;;;;;4.00;2.80;;;7.40;97.70;;;;;;5092709;28;20706;-51
2021/03/15 08:23:13;;;;;;;3.40;3.10;;;7.50;97.80;;;;;;5092338;28;20627;-51
2021/03/15 08:25:40;;;;;;;5.60;2.43;;;7.50;97.60;;;;;;5091444;28;20658;-51
2021/03/15 08:28:08;;;;;;;2.60;2.40;;;7.60;97.60;;;;;;5090431;28;20666;-51
2021/03/15 08:30:35;;;;;;;3.20;2.90;;;7.60;97.50;;;;;;5090929;28;21247;-51
2021/03/15 08:33:02;;;;;;;2.93;2.63;;;7.60;97.50;;;;;;5091631;28;20666;-51
2021/03/15 08:35:29;;;;;;;2.23;2.00;;;7.70;97.60;;;;;;5092088;28;21222;-51
2021/03/15 08:37:57;;;;;;;5.43;2.40;;;7.70;97.60;;;;;;5091689;28;20634;-52
2021/03/15 08:40:49;;;;;;;2.60;2.40;;;7.70;97.50;;;;;;5090719;28;20692;-52
2021/03/15 08:43:44;;;;;;;2.90;2.60;;;7.80;97.50;;;;;;5092166;28;20667;-52
2021/03/15 08:46:13;;;;;;;2.70;2.50;;;7.90;97.50;;;;;;5090663;28;20726;-52
2021/03/15 08:49:04;;;;;;;3.23;2.30;;;7.90;97.20;;;;;;5090854;28;20758;-52
2021/03/15 08:51:50;;;;;;;5.23;2.47;;;7.90;97.30;;;;;;5091214;28;20646;-52
2021/03/15 08:54:38;;;;;;;5.00;2.50;;;8.00;97.50;;;;;;5077590;28;20619;-53
2021/03/15 08:57:06;;;;;;;3.50;3.20;;;8.00;97.80;;;;;;5071883;28;20633;-59
2021/03/15 08:59:34;;;;;;;4.40;2.83;;;8.00;97.30;;;;;;5070799;28;20706;-52
2021/03/15 09:02:05;;;;;;;5.43;2.63;;;8.10;97.40;;;;;;5077215;28;21038;-53
2021/03/15 09:04:53;;;;;;;2.87;1.80;;;8.10;97.40;;;;;;5070917;28;21267;-52
2021/03/15 09:07:34;;;;;;;3.50;3.20;;;8.20;97.20;;;;;;5081472;28;20990;-53
2021/03/15 09:10:40;;;;;;;3.97;2.40;;;8.20;97.30;;;;;;5074371;28;21234;-51
2021/03/15 09:13:30;;;;;;;2.37;2.00;;;8.40;97.40;;;;;;5071345;28;20596;-52
2021/03/15 09:16:02;;;;;;;2.97;2.47;;;8.50;96.90;;;;;;5090734;28;20638;-51
2021/03/15 09:18:54;;;;;;;2.40;2.20;;;8.50;96.70;;;;;;5089293;28;20722;-51
2021/03/15 09:21:50;;;;;;;2.93;2.63;;;8.50;96.70;;;;;;5084326;28;20691;-51
2021/03/15 09:24:48;;;;;;;2.70;1.83;;;8.60;97.00;;;;;;5072884;28;20625;-51
2021/03/15 09:27:35;;;;;;;3.63;2.60;;;8.60;97.00;;;;;;5070956;28;21243;-51
2021/03/15 09:30:16;;;;;;;2.87;1.90;;;8.80;97.20;;;;;;5090737;28;20660;-52
2021/03/15 09:32:45;;;;;;;2.30;2.10;;;8.90;96.80;;;;;;5091263;28;20628;-51
2021/03/15 09:35:14;;;;;;;2.43;2.30;;;8.90;96.40;;;;;;5090896;28;20648;-51
2021/03/15 09:37:41;;;;;;;1.90;1.80;;;9.00;96.60;;;;;;5090498;28;20629;-52
2021/03/15 09:40:11;;;;;;;2.00;1.90;;;9.10;96.60;;;;;;5091183;28;20664;-52
2021/03/15 09:42:39;;;;;;;2.73;1.87;;;9.20;96.40;;;;;;5092167;28;20624;-53
2021/03/15 09:45:07;;;;;;;2.57;2.17;;;9.40;96.10;;;;;;5092396;28;20631;-53
2021/03/15 09:47:34;;;;;;;1.20;1.20;;;9.40;96.00;;;;;;5087370;28;20632;-52
2021/03/15 09:50:02;;;;;;;1.33;1.23;;;9.60;95.20;;;;;;5068947;28;21296;-52
2021/03/15 09:52:29;;;;;;;1.60;1.23;;;9.60;94.40;;;;;;5070878;28;20647;-52
2021/03/15 09:54:57;;;;;;;1.30;1.20;;;9.70;93.90;;;;;;5071754;28;20649;-52
2021/03/15 09:57:24;;;;;;;1.07;1.00;;;9.70;93.60;;;;;;5090287;28;20675;-52
2021/03/15 09:59:53;;;;;;;1.87;1.00;;;9.80;93.00;;;;;;5090482;28;20707;-51
2021/03/15 10:02:27;;;;;;;2.37;2.17;;;10.00;92.00;;;;;;5090406;28;21317;-52
2021/03/15 10:04:54;;;;;;;1.03;0.80;;;10.00;91.70;;;;;;5091232;28;20675;-54
2021/03/15 10:07:22;;;;;;;1.87;1.40;;;10.00;91.10;;;;;;5090783;28;20667;-53
2021/03/15 10:09:49;;;;;;;1.17;1.07;;;10.00;90.80;;;;;;5088860;28;21231;-53
2021/03/15 10:12:19;;;;;;;1.30;1.20;;;10.00;91.10;;;;;;5090110;28;20722;-51
2021/03/15 10:14:46;;;;;;;3.90;1.90;;;10.00;91.10;;;;;;5090661;28;20688;-51
2021/03/15 10:17:20;;;;;;;1.47;0.97;;;10.10;91.00;;;;;;5090667;28;20658;-52
2021/03/15 10:19:47;;;;;;;0.90;0.90;;;10.30;90.70;;;;;;5089751;28;20668;-52
2021/03/15 10:22:16;;;;;;;1.27;1.00;;;10.50;90.50;;;;;;5087519;28;20636;-51
2021/03/15 10:24:44;;;;;;;1.90;1.67;;;10.60;87.50;;;;;;5088710;28;20651;-51
2021/03/15 10:27:16;;;;;;;1.40;1.00;;;10.80;86.80;;;;;;5090175;28;20663;-51
2021/03/15 10:29:43;;;;;;;2.53;1.40;;;10.90;84.40;;;;;;5090238;28;20670;-52
2021/03/15 10:32:10;;;;;;;2.70;1.43;;;11.10;80.80;;;;;;5090109;28;20636;-51
2021/03/15 10:34:36;;;;;;;2.80;1.40;;;11.20;78.30;;;;;;5090845;28;20670;-51
2021/03/15 10:37:03;;;;;;;1.60;1.50;;;11.30;79.00;;;;;;5088470;28;20624;-52
2021/03/15 10:39:30;;;;;;;2.30;1.47;;;11.40;78.50;;;;;;5072883;28;20679;-54
2021/03/15 10:41:58;;;;;;;1.77;1.30;;;11.40;76.70;;;;;;5077469;28;21184;-53
2021/03/15 10:44:25;;;;;;;2.30;1.97;;;11.50;76.50;;;;;;5087390;28;20656;-52
2021/03/15 10:46:53;;;;;;;1.93;1.50;;;11.50;75.50;;;;;;5090522;28;21169;-53
2021/03/15 10:49:22;;;;;;;1.40;1.30;;;11.40;73.90;;;;;;5079969;28;20673;-53
2021/03/15 10:51:50;;;;;;;1.40;1.30;;;11.40;73.30;;;;;;5069074;28;20638;-52
2021/03/15 10:54:30;;;;;;;1.77;1.20;;;11.40;72.00;;;;;;5075281;28;21034;-53
2021/03/15 10:57:15;;;;;;;4.57;2.33;;;11.30;71.10;;;;;;5088217;28;20615;-51
2021/03/15 10:59:42;;;;;;;6.33;1.97;;;11.30;70.20;;;;;;5089975;28;20699;-53
2021/03/15 11:02:09;;;;;;;2.20;1.70;;;11.20;70.60;;;;;;5080852;28;20636;-53
2021/03/15 11:04:37;;;;;;;1.67;1.57;;;11.20;68.60;;;;;;5084302;28;21151;-51
2021/03/15 11:07:21;;;;;;;2.30;1.60;;;11.10;66.30;;;;;;5082116;28;20671;-52
2021/03/15 11:10:01;;;;;;;3.83;2.00;;;11.00;67.40;;;;;;5086320;28;20659;-52
2021/03/15 11:12:47;;;;;;;4.07;2.20;;;11.00;66.90;;;;;;5085156;28;20639;-51
2021/03/15 11:15:22;;;;;;;4.33;2.60;;;11.10;68.30;;;;;;5091114;28;20989;-51
2021/03/15 11:18:13;;;;;;;2.30;2.10;;;11.20;68.00;;;;;;5093514;28;20631;-51
2021/03/15 11:20:45;;;;;;;2.13;1.93;;;11.40;67.70;;;;;;5078478;28;20680;-51
2021/03/15 11:23:13;;;;;;;2.00;1.60;;;11.60;67.70;;;;;;5092811;28;20648;-52
2021/03/15 11:25:40;;;;;;;3.33;2.57;;;11.80;65.70;;;;;;5072352;28;20682;-51
2021/03/15 11:28:10;;;;;;;7.13;3.10;;;12.00;65.90;;;;;;5072848;28;20687;-52
2021/03/15 11:30:37;;;;;;;2.73;2.03;;;12.40;65.00;;;;;;5073242;28;21136;-52
2021/03/15 11:33:06;;;;;;;2.03;1.83;;;12.70;59.10;;;;;;5073459;28;20649;-52
2021/03/15 11:35:33;;;;;;;2.27;2.07;;;12.80;58.60;;;;;;5083128;28;21234;-51
2021/03/15 11:38:00;;;;;;;2.27;1.30;;;12.90;58.70;;;;;;5093285;28;20661;-52
2021/03/15 11:40:32;;;;;;;1.97;1.80;;;12.90;57.80;;;;;;5088489;28;20692;-51
2021/03/15 11:42:59;;;;;;;2.93;1.93;;;12.90;57.40;;;;;;5093666;28;20620;-52
2021/03/15 11:45:27;;;;;;;2.43;1.73;;;12.90;57.00;;;;;;5093415;28;20632;-51
2021/03/15 11:47:54;;;;;;;2.10;1.37;;;12.70;57.20;;;;;;5092829;28;20663;-52
2021/03/15 11:50:21;;;;;;;2.67;1.60;;;12.50;57.20;;;;;;5078074;28;20648;-52
2021/03/15 11:52:48;;;;;;;1.80;1.70;;;12.30;57.40;;;;;;5074439;28;20655;-52
2021/03/15 11:55:15;;;;;;;3.57;2.00;;;12.10;57.30;;;;;;5083576;28;20640;-51
2021/03/15 11:57:42;;;;;;;4.60;2.10;;;12.00;57.70;;;;;;5072680;28;20657;-52
2021/03/15 12:00:10;;;;;;;1.80;1.30;;;11.90;57.30;;;;;;5082258;28;20713;-52
2021/03/15 12:02:39;;;;;;;2.90;1.93;;;11.80;56.80;;;;;;5071720;28;20733;-50
2021/03/15 12:05:07;;;;;;;2.20;2.00;;;11.70;57.90;;;;;;5086608;28;20982;-53
2021/03/15 12:07:34;;;;;;;2.10;2.00;;;11.60;59.00;;;;;;5092699;28;20627;-50
2021/03/15 12:10:01;;;;;;;2.07;1.87;;;11.60;60.20;;;;;;5090989;28;20647;-53
2021/03/15 12:12:27;;;;;;;1.60;1.50;;;11.80;59.90;;;;;;5092240;28;20654;-52
2021/03/15 12:14:55;;;;;;;2.93;2.23;;;11.90;59.80;;;;;;5088478;28;20679;-51
2021/03/15 12:17:21;;;;;;;2.50;1.90;;;12.00;59.00;;;;;;5071838;28;20621;-52
2021/03/15 12:19:49;;;;;;;2.50;2.30;;;12.10;57.90;;;;;;5084438;28;20667;-52
2021/03/15 12:22:16;;;;;;;3.70;2.90;;;12.20;57.60;;;;;;5076273;28;20629;-52
2021/03/15 12:24:43;;;;;;;3.23;2.20;;;12.20;57.50;;;;;;5074529;28;20648;-51
2021/03/15 12:27:10;;;;;;;2.83;1.80;;;12.20;57.80;;;;;;5092649;28;21087;-52
2021/03/15 12:29:37;;;;;;;11.87;10.67;;;12.10;57.10;;;;;;5091448;28;20652;-52
2021/03/15 12:32:05;;;;;;;9.83;8.90;;;12.10;58.20;;;;;;5092080;28;20656;-52
2021/03/15 12:34:31;;;;;;;2.93;2.33;;;12.00;57.30;;;;;;5093346;28;20659;-51
2021/03/15 12:36:59;;;;;;;2.53;2.30;;;12.00;58.10;;;;;;5076025;28;21010;-52
2021/03/15 12:39:26;;;;;;;2.50;2.30;;;11.80;58.20;;;;;;5091964;28;20665;-52
2021/03/15 12:41:53;;;;;;;3.50;2.60;;;11.70;59.00;;;;;;5091941;28;20644;-51
2021/03/15 12:44:20;;;;;;;4.17;3.37;;;11.60;59.50;;;;;;5090746;28;20628;-53
2021/03/15 12:46:47;;;;;;;3.43;2.77;;;11.60;60.40;;;;;;5090845;28;20659;-51
2021/03/15 12:49:13;;;;;;;3.10;2.90;;;11.70;60.60;;;;;;5092882;28;20627;-51
2021/03/15 12:51:40;;;;;;;5.40;3.40;;;11.90;61.20;;;;;;5092820;28;20676;-51
2021/03/15 12:54:08;;;;;;;3.03;2.83;;;12.10;60.10;;;;;;5093197;28;20670;-51
2021/03/15 12:56:35;;;;;;;3.30;2.93;;;12.30;59.70;;;;;;5091143;28;20656;-51
2021/03/15 12:59:02;;;;;;;4.30;3.53;;;12.40;59.30;;;;;;5091913;28;20629;-52
2021/03/15 13:01:29;;;;;;;4.10;3.80;;;12.60;58.60;;;;;;5093006;28;21216;-52
2021/03/15 13:03:56;;;;;;;2.90;2.57;;;13.00;58.80;;;;;;5091939;28;20624;-52
2021/03/15 13:06:23;;;;;;;2.97;2.73;;;13.50;57.10;;;;;;5090532;28;20617;-52